createdAt,value
2023-02-15T00:02:20.809Z,14.68
2023-02-15T00:04:52.667Z,14.27
2023-02-15T00:07:24.883Z,13.82
2023-02-15T00:09:56.763Z,13.45
2023-02-15T00:12:28.536Z,13.05
2023-02-15T00:15:00.482Z,14.15
2023-02-15T00:17:32.360Z,13.65
2023-02-15T00:20:04.451Z,12.13
2023-02-15T00:22:36.333Z,14.00
2023-02-15T00:25:08.250Z,13.38
2023-02-15T00:27:40.089Z,13.82
2023-02-15T00:30:12.481Z,14.25
2023-02-15T00:32:44.377Z,13.80
2023-02-15T00:35:17.370Z,13.20
2023-02-15T00:37:50.004Z,12.60
2023-02-15T00:40:21.881Z,12.40
2023-02-15T00:42:53.966Z,13.73
2023-02-15T00:45:25.827Z,13.70
2023-02-15T00:47:57.730Z,13.70
2023-02-15T00:50:29.768Z,12.50
2023-02-15T00:53:01.608Z,12.60
2023-02-15T00:55:33.501Z,13.40
2023-02-15T00:58:05.376Z,13.95
2023-02-15T01:00:38.680Z,14.07
2023-02-15T01:03:11.067Z,15.60
2023-02-15T01:05:43.204Z,14.80
2023-02-15T01:08:15.216Z,14.95
2023-02-15T01:10:48.187Z,14.60
2023-02-15T01:13:20.573Z,15.15
2023-02-15T01:15:56.531Z,13.88
2023-02-15T01:18:28.813Z,14.20
2023-02-15T01:21:00.675Z,13.35
2023-02-15T01:23:34.216Z,13.88
2023-02-15T01:26:06.117Z,13.85
2023-02-15T01:28:38.485Z,14.35
2023-02-15T01:31:12.938Z,13.85
2023-02-15T01:33:44.939Z,13.13
2023-02-15T01:36:18.407Z,14.70
2023-02-15T01:38:50.441Z,13.32
2023-02-15T01:41:25.085Z,13.73
2023-02-15T01:43:59.923Z,13.18
2023-02-15T01:46:45.013Z,14.10
2023-02-15T01:49:21.225Z,13.68
2023-02-15T01:51:53.952Z,14.55
2023-02-15T01:54:33.247Z,13.57
2023-02-15T01:57:10.307Z,14.20
2023-02-15T01:59:45.731Z,13.30
2023-02-15T02:02:21.761Z,13.98
2023-02-15T02:04:57.669Z,13.90
2023-02-15T02:07:35.247Z,13.68
2023-02-15T02:10:10.463Z,13.95
2023-02-15T02:12:45.354Z,14.68
2023-02-15T02:15:17.750Z,13.85
2023-02-15T02:17:55.298Z,13.82
2023-02-15T02:21:00.439Z,13.75
2023-02-15T02:23:41.197Z,13.65
2023-02-15T02:26:37.423Z,13.50
2023-02-15T02:29:29.607Z,13.52
2023-02-15T02:32:06.998Z,13.68
2023-02-15T02:34:53.918Z,13.40
2023-02-15T02:37:36.148Z,13.20
2023-02-15T02:40:26.169Z,13.05
2023-02-15T02:43:24.900Z,13.45
2023-02-15T02:46:03.952Z,13.68
2023-02-15T02:48:38.291Z,12.05
2023-02-15T02:51:10.156Z,12.60
2023-02-15T02:53:42.164Z,12.35
2023-02-15T02:56:28.646Z,13.77
2023-02-15T02:59:10.741Z,13.25
2023-02-15T03:01:58.666Z,13.48
2023-02-15T03:04:37.363Z,11.77
2023-02-15T03:07:13.492Z,11.82
2023-02-15T03:09:50.583Z,12.10
2023-02-15T03:12:29.047Z,12.05
2023-02-15T03:15:14.069Z,11.35
2023-02-15T03:17:57.667Z,11.23
2023-02-15T03:20:34.649Z,10.77
2023-02-15T03:23:16.879Z,12.10
2023-02-15T03:25:53.654Z,11.13
2023-02-15T03:28:38.867Z,11.10
2023-02-15T03:31:14.896Z,11.43
2023-02-15T03:34:04.317Z,10.93
2023-02-15T03:36:38.917Z,11.80
2023-02-15T03:39:39.203Z,10.32
2023-02-15T03:42:17.970Z,11.10
2023-02-15T03:44:58.960Z,12.05
2023-02-15T03:47:40.627Z,12.95
2023-02-15T03:53:10.330Z,12.80
2023-02-15T03:55:42.263Z,12.35
2023-02-15T03:58:32.747Z,12.52
2023-02-15T04:01:59.610Z,12.57
2023-02-15T04:04:36.056Z,13.15
2023-02-15T04:07:09.804Z,12.52
2023-02-15T04:10:00.048Z,12.55
2023-02-15T04:12:32.317Z,13.07
2023-02-15T04:15:23.073Z,12.85
2023-02-15T04:17:55.008Z,12.75
2023-02-15T04:20:45.440Z,12.05
2023-02-15T04:23:35.723Z,11.40
2023-02-15T04:26:07.573Z,11.30
2023-02-15T04:28:39.359Z,11.57
2023-02-15T04:31:11.295Z,10.70
2023-02-15T04:33:44.761Z,11.00
2023-02-15T04:36:16.664Z,10.52
2023-02-15T04:38:48.543Z,10.82
2023-02-15T04:41:20.339Z,10.32
2023-02-15T04:43:52.203Z,10.82
2023-02-15T04:46:24.237Z,11.25
2023-02-15T04:48:56.602Z,10.85
2023-02-15T04:51:28.637Z,10.57
2023-02-15T04:54:00.472Z,9.65
2023-02-15T04:56:34.201Z,9.73
2023-02-15T04:59:06.568Z,8.88
2023-02-15T05:01:38.383Z,9.07
2023-02-15T05:04:10.370Z,9.50
2023-02-15T05:06:42.266Z,9.27
2023-02-15T05:09:14.520Z,9.07
2023-02-15T05:11:46.753Z,8.80
2023-02-15T05:14:18.701Z,9.20
2023-02-15T05:16:50.753Z,9.43
2023-02-15T05:19:25.526Z,9.02
2023-02-15T05:21:57.425Z,9.13
2023-02-15T05:24:47.941Z,9.05
2023-02-15T05:27:38.210Z,9.43
2023-02-15T05:30:12.700Z,9.95
2023-02-15T05:32:44.728Z,10.77
2023-02-15T05:35:17.581Z,10.10
2023-02-15T05:37:49.415Z,9.45
2023-02-15T05:40:21.437Z,9.05
2023-02-15T05:42:53.249Z,9.70
2023-02-15T05:45:25.526Z,9.90
2023-02-15T05:47:59.090Z,10.23
2023-02-15T05:50:31.406Z,10.07
2023-02-15T05:53:05.272Z,11.18
2023-02-15T05:55:41.784Z,10.60
2023-02-15T05:58:13.628Z,10.73
2023-02-15T06:00:45.444Z,10.50
2023-02-15T06:03:17.311Z,9.68
2023-02-15T06:05:49.391Z,10.35
2023-02-15T06:08:21.992Z,11.10
2023-02-15T06:10:53.806Z,10.88
2023-02-15T06:13:26.589Z,10.00
2023-02-15T06:15:58.694Z,11.13
2023-02-15T06:18:30.704Z,10.93
2023-02-15T06:21:02.575Z,11.30
2023-02-15T06:23:34.405Z,11.43
2023-02-15T06:26:06.252Z,11.82
2023-02-15T06:28:38.426Z,11.07
2023-02-15T06:31:10.460Z,10.90
2023-02-15T06:33:42.398Z,10.35
2023-02-15T06:36:14.195Z,10.77
2023-02-15T06:38:46.096Z,11.40
2023-02-15T06:41:17.991Z,12.80
2023-02-15T06:43:50.056Z,12.27
2023-02-15T06:46:21.958Z,12.32
2023-02-15T06:48:53.906Z,12.25
2023-02-15T06:51:25.802Z,13.70
2023-02-15T06:53:57.604Z,13.18
2023-02-15T06:56:30.576Z,12.70
2023-02-15T06:59:02.498Z,12.05
2023-02-15T07:01:34.347Z,11.88
2023-02-15T07:04:06.604Z,12.23
2023-02-15T07:06:38.504Z,49.13
2023-02-15T07:09:10.493Z,18.83
2023-02-15T07:12:01.094Z,12.75
2023-02-15T07:14:33.047Z,12.75
2023-02-15T07:17:06.145Z,11.95
2023-02-15T07:19:39.189Z,11.75
2023-02-15T07:22:11.087Z,11.88
2023-02-15T07:24:42.853Z,12.05
2023-02-15T07:27:14.698Z,11.02
2023-02-15T07:29:46.593Z,12.48
2023-02-15T07:32:18.509Z,12.38
2023-02-15T07:34:50.372Z,11.63
2023-02-15T07:37:22.250Z,12.20
2023-02-15T07:39:54.357Z,11.82
2023-02-15T07:42:26.246Z,12.88
2023-02-15T07:44:58.123Z,12.38
2023-02-15T07:47:29.987Z,14.35
2023-02-15T07:50:01.871Z,19.90
2023-02-15T07:52:33.736Z,18.90
2023-02-15T07:55:06.401Z,19.50
2023-02-15T07:57:38.220Z,12.10
2023-02-15T08:00:10.730Z,12.55
2023-02-15T08:03:14.436Z,11.57
2023-02-15T08:05:46.619Z,12.65
2023-02-15T08:08:31.051Z,15.55
2023-02-15T08:11:24.140Z,13.88
2023-02-15T08:13:56.003Z,13.00
2023-02-15T08:16:34.679Z,13.80
2023-02-15T08:19:15.237Z,14.00
2023-02-15T08:21:55.964Z,16.37
2023-02-15T08:24:33.285Z,15.68
2023-02-15T08:27:07.401Z,14.10
2023-02-15T08:29:40.303Z,18.80
2023-02-15T08:32:13.727Z,14.13
2023-02-15T08:34:45.788Z,14.02
2023-02-15T08:37:17.651Z,14.77
2023-02-15T08:39:50.410Z,14.23
2023-02-15T08:42:22.324Z,15.73
2023-02-15T08:44:54.431Z,19.90
2023-02-15T08:47:26.367Z,18.88
2023-02-15T08:49:58.212Z,19.75
2023-02-15T08:52:30.072Z,21.08
2023-02-15T08:55:02.040Z,20.67
2023-02-15T08:57:33.932Z,22.55
2023-02-15T09:00:06.481Z,22.92
2023-02-15T09:02:38.485Z,21.60
2023-02-15T09:05:10.710Z,21.17
2023-02-15T09:07:42.552Z,21.13
2023-02-15T09:10:14.550Z,21.67
2023-02-15T09:12:46.486Z,21.65
2023-02-15T09:15:18.350Z,21.58
2023-02-15T09:17:50.243Z,21.95
2023-02-15T09:20:22.838Z,23.27
2023-02-15T09:22:58.120Z,22.02
2023-02-15T09:25:30.872Z,21.77
2023-02-15T09:28:02.727Z,21.52
2023-02-15T09:30:35.719Z,26.15
2023-02-15T09:33:07.767Z,25.90
2023-02-15T09:35:39.639Z,26.90
2023-02-15T09:38:12.968Z,27.13
2023-02-15T09:40:59.043Z,29.67
2023-02-15T09:43:46.107Z,29.08
2023-02-15T09:46:27.035Z,29.27
2023-02-15T09:49:10.473Z,30.08
2023-02-15T09:51:55.594Z,30.38
2023-02-15T09:54:33.503Z,31.10
2023-02-15T09:57:17.161Z,30.80
2023-02-15T10:00:23.813Z,31.65
2023-02-15T10:03:09.023Z,30.10
2023-02-15T10:05:58.927Z,30.30
2023-02-15T10:08:52.733Z,30.58
2023-02-15T10:11:51.030Z,30.95
2023-02-15T10:14:41.818Z,38.42
2023-02-15T10:17:19.664Z,36.05
2023-02-15T10:20:19.150Z,35.58
2023-02-15T10:23:36.000Z,36.22
2023-02-15T10:26:29.407Z,37.03
2023-02-15T10:29:17.605Z,39.03
2023-02-15T10:31:53.248Z,39.28
2023-02-15T10:34:40.478Z,38.67
2023-02-15T10:37:18.428Z,39.83
2023-02-15T10:40:05.050Z,39.20
2023-02-15T10:42:54.678Z,39.85
2023-02-15T10:45:55.103Z,40.53
2023-02-15T10:49:01.135Z,41.75
2023-02-15T10:51:50.917Z,42.70
2023-02-15T10:54:57.302Z,41.33
2023-02-15T10:57:38.633Z,42.30
2023-02-15T11:03:26.856Z,42.88
2023-02-15T11:06:20.556Z,41.92
2023-02-15T11:09:00.887Z,43.13
2023-02-15T11:11:37.844Z,44.85
2023-02-15T11:14:22.705Z,44.60
2023-02-15T11:17:01.510Z,42.92
2023-02-15T11:19:37.536Z,44.95
2023-02-15T11:22:11.614Z,44.80
2023-02-15T11:24:46.258Z,43.25
2023-02-15T11:27:24.276Z,43.65
2023-02-15T11:30:02.017Z,42.35
2023-02-15T11:32:38.251Z,44.10
2023-02-15T11:35:25.354Z,43.33
2023-02-15T11:38:21.322Z,42.53
2023-02-15T11:41:00.878Z,42.92
2023-02-15T11:43:49.952Z,42.97
2023-02-15T11:46:22.731Z,41.03
2023-02-15T11:48:54.734Z,43.00
2023-02-15T11:51:28.883Z,42.58
2023-02-15T11:54:00.979Z,40.05
2023-02-15T11:56:34.260Z,37.53
2023-02-15T11:59:19.711Z,39.55
2023-02-15T12:01:52.457Z,38.05
2023-02-15T12:04:39.813Z,37.90
2023-02-15T12:07:23.612Z,37.38
2023-02-15T12:10:23.560Z,35.75
2023-02-15T12:13:12.447Z,35.22
2023-02-15T12:15:47.724Z,34.55
2023-02-15T12:18:41.842Z,34.63
2023-02-15T12:21:24.632Z,33.17
2023-02-15T12:24:05.099Z,36.45
2023-02-15T12:26:38.006Z,34.42
2023-02-15T12:29:17.968Z,33.80
2023-02-15T12:31:52.898Z,35.13
2023-02-15T12:34:34.304Z,35.10
2023-02-15T12:40:00.603Z,33.28
2023-02-15T12:42:45.437Z,35.33
2023-02-15T12:45:29.635Z,35.45
2023-02-15T12:48:18.082Z,33.45
2023-02-15T12:50:56.404Z,32.85
2023-02-15T12:53:37.112Z,28.40
2023-02-15T12:56:10.985Z,30.25
2023-02-15T12:58:43.350Z,29.88
2023-02-15T13:01:21.128Z,31.45
2023-02-15T13:04:19.576Z,28.42
2023-02-15T13:06:54.713Z,30.50
2023-02-15T13:09:35.537Z,30.27
2023-02-15T13:12:24.417Z,28.77
2023-02-15T13:14:57.252Z,29.05
2023-02-15T13:17:35.780Z,27.23
2023-02-15T13:20:25.537Z,28.05
2023-02-15T13:23:07.021Z,26.98
2023-02-15T13:25:51.228Z,26.95
2023-02-15T13:28:32.680Z,25.10
2023-02-15T13:31:05.040Z,26.92
2023-02-15T13:33:39.151Z,25.90
2023-02-15T13:36:21.256Z,26.40
2023-02-15T13:39:21.009Z,26.38
2023-02-15T13:42:24.647Z,24.08
2023-02-15T13:45:08.374Z,23.58
2023-02-15T13:48:02.567Z,25.27
2023-02-15T13:50:34.425Z,25.85
2023-02-15T13:53:34.105Z,26.52
2023-02-15T13:56:32.705Z,26.98
2023-02-15T13:59:20.434Z,26.77
2023-02-15T14:01:59.155Z,26.48
2023-02-15T14:04:48.109Z,26.83
2023-02-15T14:07:27.966Z,26.95
2023-02-15T14:10:30.798Z,27.27
2023-02-15T14:13:10.564Z,28.17
2023-02-15T14:16:04.469Z,27.63
2023-02-15T14:18:52.234Z,27.27
2023-02-15T14:21:35.794Z,26.67
2023-02-15T14:24:28.172Z,26.42
2023-02-15T14:27:00.036Z,28.08
2023-02-15T14:29:54.925Z,29.90
2023-02-15T14:32:41.026Z,30.13
2023-02-15T14:35:22.050Z,30.77
2023-02-15T14:38:00.125Z,30.23
2023-02-15T14:41:04.386Z,29.98
2023-02-15T14:43:55.183Z,30.75
2023-02-15T14:46:55.988Z,30.33
2023-02-15T14:49:38.033Z,30.50
2023-02-15T14:52:12.494Z,31.27
2023-02-15T14:54:47.349Z,31.90
2023-02-15T14:57:19.228Z,31.05
2023-02-15T14:59:59.980Z,31.50
2023-02-15T15:02:49.293Z,30.13
2023-02-15T15:05:28.314Z,31.23
2023-02-15T15:08:05.740Z,30.35
2023-02-15T15:10:46.222Z,31.88
2023-02-15T15:13:33.313Z,30.83
2023-02-15T15:16:36.685Z,30.70
2023-02-15T15:19:13.430Z,31.35
2023-02-15T15:21:51.544Z,33.17
2023-02-15T15:24:38.755Z,32.28
2023-02-15T15:27:51.730Z,32.40
2023-02-15T15:30:24.574Z,33.05
2023-02-15T15:32:58.223Z,31.63
2023-02-15T15:36:12.314Z,32.75
2023-02-15T15:39:09.025Z,30.92
2023-02-15T15:42:06.964Z,32.47
2023-02-15T15:44:41.845Z,31.77
2023-02-15T15:47:34.950Z,33.05
2023-02-15T15:50:16.866Z,33.20
2023-02-15T15:52:53.137Z,34.17
2023-02-15T15:55:28.875Z,33.80
2023-02-15T15:58:05.569Z,35.92
2023-02-15T16:01:00.411Z,34.38
2023-02-15T16:03:32.845Z,34.58
2023-02-15T16:06:05.255Z,36.42
2023-02-15T16:08:42.785Z,34.65
2023-02-15T16:11:27.054Z,35.88
2023-02-15T16:13:58.999Z,34.58
2023-02-15T16:16:31.975Z,85.57
2023-02-15T16:19:04.366Z,46.83
2023-02-15T16:21:38.417Z,35.85
2023-02-15T16:24:44.532Z,34.40
2023-02-15T16:27:22.254Z,34.90
2023-02-15T16:29:54.493Z,36.15
2023-02-15T16:32:29.389Z,36.78
2023-02-15T16:35:03.810Z,36.10
2023-02-15T16:37:36.078Z,35.22
2023-02-15T16:40:26.515Z,41.90
2023-02-15T16:43:03.955Z,42.00
2023-02-15T16:45:38.726Z,37.55
2023-02-15T16:48:18.768Z,44.88
2023-02-15T16:50:55.772Z,44.78
2023-02-15T16:53:29.826Z,36.97
2023-02-15T16:56:04.907Z,33.88
2023-02-15T16:58:46.059Z,34.42
2023-02-15T17:01:24.506Z,33.35
2023-02-15T17:04:22.912Z,33.50
2023-02-15T17:07:18.236Z,33.88
2023-02-15T17:09:55.769Z,35.22
2023-02-15T17:12:48.416Z,35.40
2023-02-15T17:15:31.680Z,34.25
2023-02-15T17:18:10.311Z,34.75
2023-02-15T17:20:44.672Z,34.60
2023-02-15T17:23:34.989Z,34.83
2023-02-15T17:26:22.264Z,33.78
2023-02-15T17:28:59.811Z,33.50
2023-02-15T17:31:33.947Z,33.45
2023-02-15T17:34:06.774Z,33.30
2023-02-15T17:36:58.495Z,33.70
2023-02-15T17:39:30.404Z,33.35
2023-02-15T17:42:03.312Z,34.35
2023-02-15T17:44:35.194Z,64.93
2023-02-15T17:47:07.119Z,37.28
2023-02-15T17:49:38.961Z,42.00
2023-02-15T17:52:14.956Z,38.25
2023-02-15T17:55:05.653Z,40.08
2023-02-15T17:57:38.742Z,37.92
2023-02-15T18:00:33.453Z,35.20
2023-02-15T18:03:24.504Z,35.83
2023-02-15T18:06:18.899Z,33.85
2023-02-15T18:09:12.235Z,32.78
2023-02-15T18:11:48.701Z,32.78
2023-02-15T18:14:20.630Z,35.58
2023-02-15T18:16:52.872Z,34.38
2023-02-15T18:19:26.985Z,33.95
2023-02-15T18:21:58.908Z,33.38
2023-02-15T18:24:32.217Z,33.58
2023-02-15T18:27:05.320Z,33.60
2023-02-15T18:29:37.156Z,34.92
2023-02-15T18:32:16.544Z,33.20
2023-02-15T18:34:49.657Z,34.92
2023-02-15T18:37:22.796Z,33.13
2023-02-15T18:39:55.103Z,34.38
2023-02-15T18:42:31.412Z,35.20
2023-02-15T18:45:28.758Z,35.83
2023-02-15T18:48:00.982Z,34.90
2023-02-15T18:50:34.910Z,34.10
2023-02-15T18:53:15.438Z,33.38
2023-02-15T18:55:47.765Z,33.85
2023-02-15T18:58:22.524Z,37.00
2023-02-15T19:00:54.979Z,37.42
2023-02-15T19:03:27.571Z,35.50
2023-02-15T19:06:00.211Z,33.97
2023-02-15T19:08:32.132Z,32.35
2023-02-15T19:11:04.863Z,33.17
2023-02-15T19:13:36.893Z,35.35
2023-02-15T19:16:22.030Z,34.30
2023-02-15T19:18:54.229Z,33.63
2023-02-15T19:21:28.396Z,32.35
2023-02-15T19:24:05.284Z,31.10
2023-02-15T19:26:45.585Z,31.38
2023-02-15T19:29:25.262Z,30.87
2023-02-15T19:31:58.096Z,31.25
2023-02-15T19:34:30.564Z,31.52
2023-02-15T19:37:03.980Z,31.63
2023-02-15T19:39:39.647Z,31.98
2023-02-15T19:42:15.912Z,30.95
2023-02-15T19:44:47.916Z,30.45
2023-02-15T19:47:20.785Z,30.83
2023-02-15T19:49:55.358Z,31.40
2023-02-15T19:52:28.248Z,31.20
2023-02-15T19:55:00.475Z,29.85
2023-02-15T19:57:33.379Z,30.02
2023-02-15T20:00:22.266Z,30.00
2023-02-15T20:02:55.659Z,29.50
2023-02-15T20:05:29.755Z,29.58
2023-02-15T20:08:04.511Z,28.35
2023-02-15T20:10:37.327Z,27.67
2023-02-15T20:13:15.332Z,26.65
2023-02-15T20:15:50.820Z,26.35
2023-02-15T20:18:23.296Z,25.38
2023-02-15T20:20:56.262Z,26.08
2023-02-15T20:23:36.972Z,26.17
2023-02-15T20:26:19.452Z,25.13
2023-02-15T20:28:51.703Z,28.60
2023-02-15T20:31:26.915Z,24.98
2023-02-15T20:33:59.315Z,23.80
2023-02-15T20:36:31.536Z,24.27
2023-02-15T20:39:12.107Z,24.90
2023-02-15T20:41:50.522Z,23.27
2023-02-15T20:44:31.905Z,21.83
2023-02-15T20:47:04.895Z,23.63
2023-02-15T20:49:38.596Z,22.75
2023-02-15T20:52:20.930Z,21.52
2023-02-15T20:54:53.140Z,22.10
2023-02-15T20:57:25.197Z,21.08
2023-02-15T20:59:57.132Z,21.60
2023-02-15T21:02:29.074Z,21.65
2023-02-15T21:05:02.009Z,20.70
2023-02-15T21:07:33.899Z,21.63
2023-02-15T21:10:07.091Z,20.55
2023-02-15T21:12:39.037Z,20.58
2023-02-15T21:15:29.636Z,20.40
2023-02-15T21:18:07.206Z,19.33
2023-02-15T21:20:46.173Z,19.80
2023-02-15T21:23:22.994Z,18.95
2023-02-15T21:25:58.072Z,18.67
2023-02-15T21:28:30.372Z,18.38
2023-02-15T21:31:05.417Z,17.88
2023-02-15T21:33:37.488Z,18.17
2023-02-15T21:36:16.086Z,16.83
2023-02-15T21:38:48.836Z,17.13
2023-02-15T21:41:40.972Z,17.10
2023-02-15T21:44:38.385Z,17.08
2023-02-15T21:47:40.834Z,17.75
2023-02-15T21:50:36.701Z,15.88
2023-02-15T21:53:12.777Z,15.60
2023-02-15T21:55:46.947Z,16.10
2023-02-15T21:58:22.024Z,15.90
2023-02-15T22:00:56.171Z,15.75
2023-02-15T22:03:40.442Z,15.45
2023-02-15T22:06:13.795Z,15.38
2023-02-15T22:08:47.964Z,15.35
2023-02-15T22:11:24.691Z,15.38
2023-02-15T22:13:58.078Z,15.30
2023-02-15T22:16:30.663Z,14.30
2023-02-15T22:19:02.660Z,15.15
2023-02-15T22:21:34.469Z,14.50
2023-02-15T22:24:06.466Z,14.15
2023-02-15T22:26:38.421Z,14.07
2023-02-15T22:29:17.447Z,14.10
2023-02-15T22:31:49.661Z,13.70
2023-02-15T22:34:30.709Z,13.85
2023-02-15T22:37:03.268Z,13.52
2023-02-15T22:39:35.492Z,12.75
2023-02-15T22:42:20.201Z,12.68
2023-02-15T22:44:54.922Z,13.13
2023-02-15T22:47:29.669Z,12.13
2023-02-15T22:50:03.046Z,12.35
2023-02-15T22:52:34.933Z,13.30
2023-02-15T22:55:07.164Z,12.63
2023-02-15T22:57:39.010Z,12.80
2023-02-15T23:00:19.390Z,13.98
2023-02-15T23:02:51.480Z,12.45
2023-02-15T23:05:31.540Z,12.35
2023-02-15T23:08:03.496Z,11.32
2023-02-15T23:10:35.450Z,12.20
2023-02-15T23:13:25.716Z,11.95
2023-02-15T23:16:00.864Z,11.43
2023-02-15T23:18:37.327Z,11.98
2023-02-15T23:21:22.368Z,10.98
2023-02-15T23:23:58.929Z,11.20
2023-02-15T23:26:31.722Z,10.98
2023-02-15T23:29:04.188Z,10.43
2023-02-15T23:31:40.491Z,10.18
2023-02-15T23:34:31.883Z,10.43
2023-02-15T23:39:54.156Z,10.95
2023-02-15T23:42:32.033Z,10.75
2023-02-15T23:45:05.335Z,11.13
2023-02-15T23:47:56.006Z,9.98
2023-02-15T23:50:30.202Z,10.90
2023-02-15T23:53:02.235Z,9.68
2023-02-15T23:55:43.230Z,10.18
2023-02-15T23:58:20.288Z,10.60
